Time;durP1;ratioP1;P1;durP2;ratioP2;P2;SDS_P1;SDS_P2;PMS_P1;PMS_P2;Temp;Humidity;BMP_temperature;BMP_pressure;BME280_temperature;BME280_humidity;BME280_pressure;Samples;Min_cycle;Max_cycle;Signal;HPM_P1;HPM_P2
2021/04/02 00:01:50;;;;;;;7.43;4.28;;;;;;;11.60;46.79;100665.66;10376169;28;20057;-60
2021/04/02 00:06:51;;;;;;;6.75;4.47;;;;;;;11.42;47.63;100670.63;10376554;28;20053;-56
2021/04/02 00:11:52;;;;;;;7.70;4.22;;;;;;;11.12;48.45;100668.50;10383014;28;20057;-57
2021/04/02 00:16:53;;;;;;;6.15;4.70;;;;;;;11.34;47.83;100661.53;10372859;28;20486;-58
2021/04/02 00:21:54;;;;;;;12.70;5.40;;;;;;;11.21;48.29;100667.78;10381109;28;20513;-57
2021/04/02 00:26:56;;;;;;;6.00;4.85;;;;;;;11.18;48.96;100678.69;10384730;28;20076;-59
2021/04/02 00:31:56;;;;;;;6.45;4.82;;;;;;;11.02;49.75;100675.50;10381491;28;20490;-56
2021/04/02 00:36:57;;;;;;;8.85;4.97;;;;;;;11.01;49.99;100679.97;10370823;28;20089;-57
2021/04/02 00:41:58;;;;;;;5.63;5.13;;;;;;;10.78;50.33;100681.72;10374512;28;20225;-58
2021/04/02 00:46:59;;;;;;;7.10;5.43;;;;;;;10.63;51.02;100677.50;10379834;28;20109;-58
2021/04/02 00:52:00;;;;;;;8.68;5.63;;;;;;;10.42;51.64;100670.16;10378753;28;20056;-58
2021/04/02 00:57:03;;;;;;;5.30;4.88;;;;;;;10.40;51.78;100678.25;10377803;28;20057;-60
2021/04/02 01:02:04;;;;;;;8.70;6.30;;;;;;;10.46;51.90;100670.78;10370585;28;20073;-58
2021/04/02 01:07:06;;;;;;;6.03;5.43;;;;;;;10.43;52.36;100671.84;10375461;28;20049;-57
2021/04/02 01:12:07;;;;;;;7.15;5.63;;;;;;;10.37;52.17;100675.81;10377064;28;20049;-58
2021/04/02 01:17:08;;;;;;;6.63;5.68;;;;;;;10.46;52.69;100676.09;10378210;28;20048;-56
2021/04/02 01:22:18;;;;;;;6.30;5.70;;;;;;;10.34;52.61;100667.19;10379715;28;20416;-58
2021/04/02 01:27:56;;;;;;;7.22;5.95;;;;;;;10.28;53.46;100671.13;10360889;28;20046;-56
2021/04/02 01:33:00;;;;;;;6.15;5.65;;;;;;;10.27;52.66;100666.78;10372126;28;20065;-56
2021/04/02 01:38:12;;;;;;;6.95;6.05;;;;;;;10.15;53.62;100676.50;10378550;28;20049;-57
2021/04/02 01:43:17;;;;;;;7.20;6.50;;;;;;;10.05;53.89;100678.09;10375165;28;20045;-60
2021/04/02 01:48:19;;;;;;;7.53;6.50;;;;;;;10.02;54.47;100688.97;10375855;28;20118;-57
2021/04/02 01:53:25;;;;;;;7.25;6.13;;;;;;;10.16;53.77;100686.16;10373851;28;20130;-57
2021/04/02 01:58:26;;;;;;;6.68;6.07;;;;;;;9.98;54.67;100674.19;10372394;28;20514;-57
2021/04/02 02:03:31;;;;;;;7.20;6.50;;;;;;;10.02;54.47;100662.38;10374856;28;20049;-60
2021/04/02 02:08:34;;;;;;;8.05;7.25;;;;;;;9.97;54.58;100675.13;10377070;28;20064;-58
2021/04/02 02:13:40;;;;;;;7.30;6.60;;;;;;;9.88;54.66;100661.53;10367678;28;20073;-60
2021/04/02 02:18:43;;;;;;;7.50;6.80;;;;;;;9.91;53.92;100661.31;10374181;28;20077;-57
2021/04/02 02:23:44;;;;;;;6.85;6.25;;;;;;;9.86;53.66;100662.59;10374987;28;20105;-60
2021/04/02 02:28:46;;;;;;;6.90;6.30;;;;;;;9.78;54.76;100665.81;10385702;28;20115;-58
2021/04/02 02:33:46;;;;;;;7.22;6.60;;;;;;;9.50;54.72;100662.44;10382492;28;20053;-60
2021/04/02 02:38:48;;;;;;;7.85;7.15;;;;;;;9.55;55.08;100665.63;10383319;28;20179;-57
2021/04/02 02:43:49;;;;;;;7.10;6.22;;;;;;;9.55;54.82;100670.09;10377179;28;20068;-57
2021/04/02 02:48:53;;;;;;;7.75;6.95;;;;;;;9.65;54.87;100670.28;10362950;28;20137;-58
2021/04/02 02:53:58;;;;;;;7.18;6.47;;;;;;;9.67;54.99;100669.22;10378735;28;20111;-56
2021/04/02 02:59:03;;;;;;;7.35;6.55;;;;;;;9.68;54.44;100670.06;10369748;28;20782;-57
2021/04/02 03:04:07;;;;;;;9.20;6.45;;;;;;;9.78;54.28;100672.94;10373287;28;20117;-59
2021/04/02 03:09:15;;;;;;;6.63;5.85;;;;;;;9.91;53.68;100671.97;10378016;28;20776;-57
2021/04/02 03:14:19;;;;;;;6.70;6.10;;;;;;;9.94;53.79;100670.03;10382849;28;20123;-57
2021/04/02 03:19:23;;;;;;;5.70;5.20;;;;;;;10.01;52.96;100666.84;10379109;28;20560;-58
2021/04/02 03:24:25;;;;;;;7.35;6.65;;;;;;;10.01;53.05;100665.97;10379960;28;20045;-58
2021/04/02 03:29:27;;;;;;;6.57;5.97;;;;;;;10.08;52.55;100672.56;10381937;28;20073;-55
2021/04/02 03:34:30;;;;;;;6.35;5.30;;;;;;;10.12;52.09;100673.19;10354903;28;20137;-59
2021/04/02 03:39:33;;;;;;;7.45;5.80;;;;;;;10.02;52.22;100681.00;10378378;28;20122;-59
2021/04/02 03:44:35;;;;;;;5.90;5.43;;;;;;;9.93;52.66;100679.84;10380204;28;20661;-58
2021/04/02 03:49:37;;;;;;;6.70;5.50;;;;;;;9.89;52.53;100681.00;10375225;28;20125;-59
2021/04/02 03:54:39;;;;;;;6.35;5.85;;;;;;;9.88;52.65;100682.81;10381933;28;20137;-58
2021/04/02 03:59:43;;;;;;;6.03;5.43;;;;;;;9.86;52.33;100687.41;10377647;28;20164;-57
2021/04/02 04:04:45;;;;;;;6.38;5.78;;;;;;;9.86;52.58;100695.38;10355589;28;20076;-56
2021/04/02 04:09:49;;;;;;;6.15;5.65;;;;;;;9.81;52.94;100689.53;10374478;28;20049;-56
2021/04/02 04:14:52;;;;;;;6.18;5.60;;;;;;;9.71;53.06;100691.13;10382361;28;20108;-58
2021/04/02 04:19:55;;;;;;;6.00;5.45;;;;;;;9.67;52.75;100681.69;10371675;22;20049;-60
2021/04/02 04:24:58;;;;;;;5.72;5.20;;;;;;;9.62;52.63;100681.13;10353534;28;20103;-60
2021/04/02 04:30:00;;;;;;;7.13;5.53;;;;;;;9.59;52.37;100684.00;10339590;28;20041;-60
2021/04/02 04:35:01;;;;;;;5.90;5.22;;;;;;;9.61;52.13;100690.06;10361585;28;20053;-60
2021/04/02 04:40:04;;;;;;;6.18;5.53;;;;;;;9.53;52.16;100686.16;10339231;28;20103;-60
2021/04/02 04:45:07;;;;;;;5.97;5.38;;;;;;;9.52;51.37;100691.56;10339938;28;20786;-60
2021/04/02 04:50:09;;;;;;;5.78;5.28;;;;;;;9.45;51.35;100690.28;10352679;28;20131;-61
2021/04/02 04:55:11;;;;;;;7.00;5.65;;;;;;;9.50;51.13;100694.34;10345443;28;20049;-60
2021/04/02 05:00:14;;;;;;;5.97;5.32;;;;;;;9.33;50.64;100703.44;10351194;28;20112;-60
2021/04/02 05:05:21;;;;;;;6.57;5.32;;;;;;;9.41;50.19;100700.25;10348885;28;20128;-60
2021/04/02 05:10:23;;;;;;;6.78;5.25;;;;;;;9.60;49.18;100693.69;10349586;28;20418;-59
2021/04/02 05:15:26;;;;;;;5.85;5.35;;;;;;;9.77;48.68;100695.16;10337092;28;20485;-60
2021/04/02 05:20:39;;;;;;;5.43;4.95;;;;;;;9.83;48.57;100695.59;10354472;28;20045;-59
2021/04/02 05:25:40;;;;;;;5.30;4.80;;;;;;;9.70;49.07;100713.38;10357556;28;20123;-59
2021/04/02 05:30:42;;;;;;;4.60;4.25;;;;;;;9.78;48.93;100703.03;10290086;28;20093;-60
2021/04/02 05:35:42;;;;;;;4.55;4.15;;;;;;;9.78;49.02;100707.50;10315204;28;20419;-59
2021/04/02 05:40:43;;;;;;;4.82;4.43;;;;;;;9.74;49.31;100722.81;10317667;28;20178;-59
2021/04/02 05:45:45;;;;;;;6.68;4.53;;;;;;;9.60;49.59;100717.63;10318932;28;20157;-59
2021/04/02 05:50:47;;;;;;;4.78;4.38;;;;;;;9.73;49.38;100724.63;10321778;28;20067;-59
2021/04/02 05:55:49;;;;;;;5.22;4.82;;;;;;;9.83;49.19;100727.50;10319742;28;20888;-59
2021/04/02 06:00:50;;;;;;;5.10;4.70;;;;;;;9.86;49.17;100726.41;10317028;28;20597;-59
2021/04/02 06:05:51;;;;;;;4.60;4.28;;;;;;;10.12;48.63;100735.25;10324555;28;21254;-60
2021/04/02 06:10:52;;;;;;;5.22;4.50;;;;;;;10.24;48.56;100729.03;10326380;28;20048;-60
2021/04/02 06:15:55;;;;;;;5.20;4.70;;;;;;;10.42;48.46;100737.53;10327474;28;20510;-60
2021/04/02 06:20:56;;;;;;;5.28;4.88;;;;;;;10.51;48.26;100744.00;10326105;28;20073;-60
2021/04/02 06:26:01;;;;;;;5.90;4.93;;;;;;;10.57;47.99;100740.91;10324906;28;20581;-60
2021/04/02 06:31:06;;;;;;;;;;;;;;;10.68;47.90;100739.28;10325423;28;20707;-60
2021/04/02 06:36:18;;;;;;;4.55;4.20;;;;;;;10.63;47.77;100741.41;10322588;28;20039;-59
2021/04/02 06:41:20;;;;;;;5.50;4.60;;;;;;;10.73;47.17;100748.63;10325038;28;20581;-59
2021/04/02 06:46:27;;;;;;;4.80;4.40;;;;;;;10.68;47.46;100750.75;10325195;28;20525;-60
2021/04/02 06:51:28;;;;;;;5.03;4.40;;;;;;;10.76;47.34;100748.41;10306640;28;20136;-60
2021/04/02 06:57:05;;;;;;;6.43;4.45;;;;;;;10.77;47.06;100752.75;10324872;28;20058;-61
2021/04/02 07:02:07;;;;;;;5.22;4.72;;;;;;;10.61;47.84;100760.16;10325632;28;20447;-60
2021/04/02 07:07:11;;;;;;;5.22;4.72;;;;;;;10.81;47.61;100760.50;10324695;28;20521;-60
2021/04/02 07:12:13;;;;;;;6.18;5.57;;;;;;;10.91;47.76;100770.41;10326769;28;20816;-60
2021/04/02 07:17:14;;;;;;;5.30;4.80;;;;;;;10.96;47.52;100778.88;10325670;28;20111;-59
2021/04/02 07:22:16;;;;;;;5.70;5.20;;;;;;;11.01;47.63;100772.38;10323673;28;20132;-60
2021/04/02 07:27:17;;;;;;;6.60;6.00;;;;;;;10.87;47.96;100770.72;10324156;28;20069;-60
2021/04/02 07:32:18;;;;;;;6.35;5.75;;;;;;;10.89;47.69;100769.63;10325191;28;20097;-59
2021/04/02 07:37:19;;;;;;;6.75;6.00;;;;;;;11.07;47.48;100771.91;10322612;28;20143;-60
2021/04/02 07:42:21;;;;;;;5.95;5.45;;;;;;;11.21;47.62;100774.38;10323712;28;20522;-59
2021/04/02 07:47:23;;;;;;;5.75;5.25;;;;;;;11.09;47.86;100765.53;10323559;28;20157;-59
2021/04/02 07:52:32;;;;;;;6.45;5.85;;;;;;;11.25;47.62;100767.03;10323374;28;20492;-59
2021/04/02 07:57:48;;;;;;;5.93;5.32;;;;;;;11.44;47.17;100769.13;10319683;28;20045;-60
2021/04/02 08:03:08;;;;;;;6.25;5.65;;;;;;;11.36;46.44;100767.06;10318472;28;22951;-60
2021/04/02 08:08:14;;;;;;;7.40;5.95;;;;;;;11.28;47.07;100770.28;10300516;28;20135;-59
2021/04/02 08:13:16;;;;;;;6.45;5.85;;;;;;;10.99;47.18;100775.16;10321136;28;20112;-58
2021/04/02 08:18:21;;;;;;;7.78;6.30;;;;;;;11.00;47.55;100770.66;10321561;28;20053;-59
2021/04/02 08:23:23;;;;;;;6.57;5.82;;;;;;;11.15;47.33;100772.19;10323025;28;20148;-59
2021/04/02 08:28:25;;;;;;;5.85;5.32;;;;;;;11.19;47.44;100780.81;10321751;28;20430;-60
2021/04/02 08:33:27;;;;;;;6.35;5.75;;;;;;;11.41;46.97;100777.34;10319774;28;20053;-60
2021/04/02 08:38:28;;;;;;;5.70;4.95;;;;;;;11.26;46.71;100782.91;10320599;28;20088;-59
2021/04/02 08:43:39;;;;;;;5.60;5.10;;;;;;;11.47;46.32;100792.91;10321426;28;20054;-60
2021/04/02 08:48:40;;;;;;;5.40;4.90;;;;;;;11.48;46.11;100786.59;10321868;28;20104;-60
2021/04/02 08:53:41;;;;;;;6.35;5.75;;;;;;;11.38;46.19;100793.59;10321429;28;20132;-59
2021/04/02 08:58:44;;;;;;;5.95;5.45;;;;;;;11.46;46.54;100792.03;10317946;28;20054;-58
2021/04/02 09:03:46;;;;;;;6.30;5.40;;;;;;;11.43;46.62;100789.63;10316987;28;20565;-59
2021/04/02 09:08:47;;;;;;;6.35;5.60;;;;;;;11.63;45.98;100792.59;10316934;28;20053;-60
2021/04/02 09:13:52;;;;;;;5.68;5.18;;;;;;;11.46;46.05;100783.22;10317446;28;20073;-59
2021/04/02 09:18:55;;;;;;;5.90;5.00;;;;;;;11.73;45.76;100795.41;10318301;28;20065;-59
2021/04/02 09:23:56;;;;;;;5.85;5.32;;;;;;;11.72;45.97;100793.69;10319148;28;20502;-59
2021/04/02 09:28:59;;;;;;;6.00;5.50;;;;;;;11.64;45.49;100789.78;10320057;28;20077;-59
2021/04/02 09:34:03;;;;;;;4.97;4.57;;;;;;;11.71;45.10;100786.66;10321046;28;20054;-63
2021/04/02 09:39:09;;;;;;;7.03;6.00;;;;;;;11.90;45.17;100786.94;10319119;28;20073;-59
2021/04/02 09:44:13;;;;;;;5.43;4.93;;;;;;;11.96;44.82;100786.50;10303802;28;20054;-60
2021/04/02 09:49:23;;;;;;;6.18;5.57;;;;;;;11.97;44.29;100782.84;10319038;28;20422;-59
2021/04/02 09:54:26;;;;;;;5.30;4.80;;;;;;;12.14;44.00;100778.84;10317571;28;20046;-59
2021/04/02 09:59:27;;;;;;;5.78;5.25;;;;;;;12.26;43.45;100778.88;10320125;28;20125;-59
2021/04/02 10:04:28;;;;;;;5.13;4.63;;;;;;;12.46;43.23;100777.28;10317208;28;20069;-59
2021/04/02 10:09:29;;;;;;;5.60;5.10;;;;;;;12.39;43.36;100774.25;10300629;28;20042;-59
2021/04/02 10:14:30;;;;;;;5.78;5.18;;;;;;;12.58;42.93;100762.97;10320806;28;21027;-65
2021/04/02 10:19:32;;;;;;;5.03;4.63;;;;;;;12.67;42.54;100756.88;10321966;22;20060;-58
2021/04/02 10:24:33;;;;;;;5.45;4.95;;;;;;;12.83;42.14;100758.28;10334474;28;20168;-57
2021/04/02 10:29:35;;;;;;;5.03;4.53;;;;;;;12.66;42.57;100757.81;10339781;28;20053;-58
2021/04/02 10:34:36;;;;;;;7.00;6.40;;;;;;;12.94;42.23;100752.03;10335655;28;20182;-58
2021/04/02 10:39:37;;;;;;;5.40;4.90;;;;;;;12.66;42.31;100754.31;10332013;28;20453;-58
2021/04/02 10:44:38;;;;;;;6.32;5.70;;;;;;;12.09;44.02;100749.03;10318928;28;20054;-57
2021/04/02 10:49:38;;;;;;;5.40;4.72;;;;;;;12.21;43.54;100747.22;10316059;28;20132;-58
2021/04/02 10:54:40;;;;;;;6.00;5.50;;;;;;;12.72;42.72;100727.94;10333043;28;20058;-57
2021/04/02 10:59:42;;;;;;;5.55;5.05;;;;;;;12.68;42.48;100734.50;10329386;28;21248;-65
2021/04/02 11:04:43;;;;;;;5.72;5.22;;;;;;;13.22;41.50;100738.06;10348018;28;20736;-58
2021/04/02 11:09:44;;;;;;;5.85;5.30;;;;;;;13.53;40.61;100732.84;10345146;28;20054;-59
2021/04/02 11:14:44;;;;;;;5.88;5.20;;;;;;;13.56;40.51;100729.91;10339795;28;20214;-59
2021/04/02 11:19:45;;;;;;;6.68;5.70;;;;;;;13.71;40.20;100738.44;10325125;28;20127;-58
2021/04/02 11:24:47;;;;;;;5.95;5.43;;;;;;;13.82;40.16;100720.63;10345758;28;20057;-58
2021/04/02 11:29:48;;;;;;;6.20;5.60;;;;;;;12.95;41.68;100711.84;10338900;28;20143;-58
2021/04/02 11:34:49;;;;;;;5.78;5.18;;;;;;;13.32;41.78;100715.94;10335305;28;20064;-57
2021/04/02 11:39:50;;;;;;;6.78;5.70;;;;;;;13.63;40.52;100721.34;10306796;28;20084;-59
2021/04/02 11:44:51;;;;;;;6.45;5.80;;;;;;;13.51;40.95;100712.56;10309025;28;20940;-66
2021/04/02 11:49:52;;;;;;;5.63;5.13;;;;;;;13.63;40.63;100692.78;10322735;28;20168;-59
2021/04/02 11:54:53;;;;;;;6.05;5.47;;;;;;;13.95;39.36;100705.19;10323229;28;20609;-58
2021/04/02 11:59:54;;;;;;;6.22;5.63;;;;;;;14.82;37.70;100691.19;10320332;28;20104;-58
2021/04/02 12:04:55;;;;;;;5.53;5.07;;;;;;;17.01;33.48;100687.38;10329649;28;20049;-59
2021/04/02 12:09:56;;;;;;;6.00;5.50;;;;;;;24.30;22.76;100671.47;10341129;28;20062;-61
2021/04/02 12:14:57;;;;;;;5.38;4.88;;;;;;;26.66;18.92;100663.66;10341368;28;20149;-59
2021/04/02 12:19:58;;;;;;;4.82;4.43;;;;;;;22.65;24.88;100668.19;10319718;28;20671;-56
2021/04/02 12:24:59;;;;;;;5.07;4.60;;;;;;;27.84;18.34;100664.75;10315824;28;20058;-60
2021/04/02 12:30:00;;;;;;;4.93;4.53;;;;;;;26.28;19.24;100651.69;10331239;28;20060;-60
2021/04/02 12:35:03;;;;;;;5.15;4.75;;;;;;;24.23;22.10;100655.13;10332246;28;20179;-60
2021/04/02 12:40:09;;;;;;;4.95;4.65;;;;;;;29.45;16.67;100640.53;10331909;28;20046;-60
2021/04/02 12:45:11;;;;;;;4.50;4.10;;;;;;;32.14;13.92;100630.31;10326895;28;20048;-60
2021/04/02 12:50:15;;;;;;;5.53;4.80;;;;;;;24.69;19.91;100629.94;10329575;28;20058;-60
2021/04/02 12:55:20;;;;;;;4.07;3.78;;;;;;;29.74;16.02;100621.38;10328974;28;20457;-62
2021/04/02 13:00:27;;;;;;;3.92;3.63;;;;;;;31.84;13.63;100615.06;10336975;28;22760;-59
2021/04/02 13:05:28;;;;;;;3.95;3.65;;;;;;;30.09;14.69;100607.59;10334265;28;20072;-60
2021/04/02 13:10:29;;;;;;;4.00;3.70;;;;;;;26.71;18.22;100606.53;10332978;28;20111;-60
2021/04/02 13:15:30;;;;;;;2.95;2.75;;;;;;;24.67;20.76;100599.38;10336002;28;20064;-60
2021/04/02 13:20:32;;;;;;;3.30;3.10;;;;;;;24.00;21.40;100587.47;10315713;28;20053;-60
2021/04/02 13:25:33;;;;;;;3.33;3.08;;;;;;;23.04;22.64;100574.59;10329185;28;20512;-60
2021/04/02 13:30:34;;;;;;;3.70;3.35;;;;;;;22.60;23.38;100569.22;10329954;28;20105;-60
2021/04/02 13:35:36;;;;;;;3.47;3.17;;;;;;;22.29;23.88;100552.41;10333677;28;20053;-60
2021/04/02 13:40:38;;;;;;;;;;;;;;;21.49;25.20;100571.25;10326866;28;20046;-61
2021/04/02 13:45:39;;;;;;;3.45;3.13;;;;;;;21.06;25.83;100571.88;10327741;28;19929;-60
2021/04/02 13:50:40;;;;;;;3.33;3.03;;;;;;;20.44;26.47;100557.50;10335571;28;20670;-60
2021/04/02 13:55:41;;;;;;;3.78;3.47;;;;;;;19.29;28.42;100546.47;10335136;28;20083;-60
2021/04/02 14:00:42;;;;;;;3.30;2.65;;;;;;;19.85;27.59;100541.03;10336862;28;20065;-63
2021/04/02 14:05:43;;;;;;;3.22;2.92;;;;;;;19.36;28.52;100532.09;10336812;28;20041;-60
2021/04/02 14:10:44;;;;;;;3.95;3.60;;;;;;;19.23;28.71;100539.88;10337475;28;20418;-59
2021/04/02 14:15:45;;;;;;;3.92;3.53;;;;;;;18.87;29.19;100537.59;10334735;28;20552;-59
2021/04/02 14:20:48;;;;;;;4.43;4.00;;;;;;;18.48;29.77;100527.50;10329143;28;20127;-60
2021/04/02 14:26:03;;;;;;;3.35;3.05;;;;;;;18.26;30.25;100545.19;10335300;28;20046;-60
2021/04/02 14:31:04;;;;;;;3.95;3.60;;;;;;;17.97;30.70;100533.00;10335837;28;20136;-60
2021/04/02 14:36:05;;;;;;;4.63;4.13;;;;;;;17.89;31.28;100536.50;10338227;28;20088;-60
2021/04/02 14:41:07;;;;;;;4.72;4.28;;;;;;;17.75;31.76;100537.13;10337703;28;20790;-60
2021/04/02 14:46:07;;;;;;;4.38;3.92;;;;;;;17.58;32.04;100526.31;10326066;28;20669;-59
2021/04/02 14:51:08;;;;;;;4.40;4.10;;;;;;;17.31;32.34;100520.13;10324479;28;20136;-59
2021/04/02 14:56:09;;;;;;;4.93;4.45;;;;;;;17.05;32.88;100513.94;10310012;28;21475;-59
2021/04/02 15:01:10;;;;;;;4.60;3.83;;;;;;;16.88;33.24;100507.63;10311446;28;20064;-59
2021/04/02 15:06:11;;;;;;;4.28;3.88;;;;;;;16.60;33.79;100494.31;10328093;28;20084;-60
2021/04/02 15:11:12;;;;;;;4.70;3.97;;;;;;;16.38;34.17;100506.41;10317849;28;20042;-58
2021/04/02 15:16:13;;;;;;;5.18;4.68;;;;;;;16.43;34.15;100504.91;10313583;28;20127;-61
2021/04/02 15:21:14;;;;;;;6.00;5.50;;;;;;;16.17;34.67;100512.06;10316815;28;20154;-59
2021/04/02 15:26:15;;;;;;;5.57;5.07;;;;;;;15.96;35.23;100507.00;10320179;28;20053;-59
2021/04/02 15:31:16;;;;;;;4.70;4.30;;;;;;;15.93;35.25;100501.94;10323616;28;20192;-59
2021/04/02 15:36:18;;;;;;;5.45;4.53;;;;;;;15.92;35.36;100495.75;10316180;28;20050;-58
2021/04/02 15:41:19;;;;;;;5.88;5.32;;;;;;;15.92;35.23;100492.22;10314271;28;20148;-60
2021/04/02 15:46:20;;;;;;;4.63;4.22;;;;;;;15.54;35.48;100487.75;10330031;28;20065;-58
2021/04/02 15:51:21;;;;;;;5.43;4.93;;;;;;;15.60;35.76;100488.16;10318646;28;20057;-58
2021/04/02 15:56:34;;;;;;;5.95;5.45;;;;;;;15.56;35.69;100483.06;10311683;28;20049;-59
2021/04/02 16:01:35;;;;;;;5.55;5.05;;;;;;;15.49;35.47;100475.78;10304753;28;20061;-59
2021/04/02 16:06:36;;;;;;;4.82;4.35;;;;;;;15.58;35.66;100471.34;10311791;28;20220;-59
2021/04/02 16:11:38;;;;;;;4.85;4.43;;;;;;;15.49;35.99;100455.19;10322616;28;20054;-59
2021/04/02 16:16:40;;;;;;;4.70;4.18;;;;;;;15.54;35.55;100462.78;10341295;28;20498;-59
2021/04/02 16:21:42;;;;;;;5.03;4.38;;;;;;;15.55;35.20;100451.03;10334416;28;20041;-60
2021/04/02 16:26:43;;;;;;;5.03;4.40;;;;;;;15.52;35.66;100452.19;10335533;28;20124;-59
2021/04/02 16:31:44;;;;;;;5.07;4.57;;;;;;;15.40;35.54;100466.78;10336312;28;20057;-60
2021/04/02 16:36:45;;;;;;;8.38;7.60;;;;;;;15.40;35.18;100474.00;10335134;28;20057;-59
2021/04/02 16:41:47;;;;;;;6.32;5.72;;;;;;;15.30;35.44;100471.38;10336735;28;20745;-60
2021/04/02 16:46:49;;;;;;;4.80;4.40;;;;;;;15.20;35.20;100474.94;10333262;22;20482;-56
2021/04/02 16:51:50;;;;;;;4.80;4.30;;;;;;;15.16;34.97;100472.69;10334434;28;20215;-56
2021/04/02 16:56:51;;;;;;;4.47;4.07;;;;;;;15.08;34.68;100475.28;10343621;28;20406;-56
2021/04/02 17:01:52;;;;;;;4.80;4.40;;;;;;;15.03;34.17;100494.50;10337789;28;21122;-55
2021/04/02 17:06:52;;;;;;;4.63;4.22;;;;;;;14.96;34.05;100498.75;10341983;28;20210;-56
2021/04/02 17:11:53;;;;;;;5.63;4.10;;;;;;;14.90;34.30;100504.69;10313922;28;20212;-57
2021/04/02 17:16:54;;;;;;;14.48;9.38;;;;;;;14.65;34.22;100501.63;10325209;28;20049;-57
2021/04/02 17:21:55;;;;;;;4.97;4.28;;;;;;;14.66;34.25;100516.72;10335823;28;20061;-56
2021/04/02 17:26:56;;;;;;;5.25;4.43;;;;;;;14.63;35.07;100530.41;10344649;28;20053;-55
2021/04/02 17:31:57;;;;;;;7.30;5.03;;;;;;;14.48;34.17;100525.44;10340098;28;20050;-55
2021/04/02 17:36:58;;;;;;;5.63;4.88;;;;;;;14.30;34.69;100540.56;10343318;28;20077;-56
2021/04/02 17:41:59;;;;;;;9.38;6.18;;;;;;;14.17;34.77;100531.94;10339077;28;20557;-55
2021/04/02 17:47:01;;;;;;;5.85;3.75;;;;;;;13.93;35.79;100549.25;10338323;28;20054;-56
2021/04/02 17:52:02;;;;;;;7.25;4.93;;;;;;;13.73;36.70;100559.91;10343192;28;20119;-55
2021/04/02 17:57:04;;;;;;;5.05;3.60;;;;;;;13.42;36.91;100546.59;10346870;28;20562;-55
2021/04/02 18:02:06;;;;;;;4.25;3.58;;;;;;;13.37;37.38;100575.53;10351181;28;20116;-55
2021/04/02 18:07:08;;;;;;;5.50;3.40;;;;;;;13.24;36.59;100577.53;10349539;28;20454;-57
2021/04/02 18:12:09;;;;;;;4.00;3.00;;;;;;;13.06;35.33;100599.56;10352194;28;20124;-55
2021/04/02 18:17:10;;;;;;;3.20;2.30;;;;;;;12.57;35.60;100598.34;10357643;28;20431;-59
2021/04/02 18:22:11;;;;;;;9.55;5.50;;;;;;;12.31;36.16;100587.16;10355324;28;20061;-55
2021/04/02 18:27:12;;;;;;;5.18;3.05;;;;;;;12.09;36.51;100614.78;10358193;28;20457;-55
2021/04/02 18:32:14;;;;;;;4.55;3.28;;;;;;;11.96;37.20;100631.75;10352017;28;20106;-55
2021/04/02 18:37:15;;;;;;;6.90;3.40;;;;;;;11.42;38.58;100621.81;10350154;28;20437;-57
2021/04/02 18:42:17;;;;;;;7.15;5.63;;;;;;;11.27;39.38;100643.38;10359322;28;20081;-58
2021/04/02 18:47:18;;;;;;;6.13;4.10;;;;;;;11.26;39.50;100648.78;10340947;28;20115;-57
2021/04/02 18:52:20;;;;;;;8.32;5.03;;;;;;;10.67;40.85;100658.53;10354152;28;20467;-57
2021/04/02 18:57:20;;;;;;;6.15;4.90;;;;;;;10.73;40.67;100663.44;10356108;28;20068;-55
2021/04/02 19:02:21;;;;;;;8.65;6.10;;;;;;;10.65;41.43;100676.44;10353894;28;20687;-57
2021/04/02 19:07:22;;;;;;;9.07;6.30;;;;;;;10.68;41.34;100697.50;10354650;28;20050;-56
2021/04/02 19:12:23;;;;;;;8.65;5.30;;;;;;;10.25;42.03;100701.47;10353909;28;20050;-57
2021/04/02 19:17:41;;;;;;;8.05;4.30;;;;;;;9.98;43.25;100711.41;10357736;28;20508;-55
2021/04/02 19:22:43;;;;;;;15.38;10.15;;;;;;;10.10;43.76;100739.78;10353544;28;20487;-56
2021/04/02 19:27:44;;;;;;;9.70;6.60;;;;;;;10.02;43.79;100728.88;10356124;28;20190;-57
2021/04/02 19:32:46;;;;;;;7.13;5.40;;;;;;;9.67;45.11;100751.63;10353378;28;20065;-57
2021/04/02 19:37:47;;;;;;;8.57;5.40;;;;;;;9.74;44.89;100760.03;10351757;28;20065;-56
2021/04/02 19:42:48;;;;;;;9.10;5.15;;;;;;;9.79;44.44;100757.91;10349526;28;20964;-57
2021/04/02 19:47:49;;;;;;;6.90;5.25;;;;;;;9.87;48.41;100765.34;10351507;28;20053;-57
2021/04/02 19:52:50;;;;;;;8.40;6.43;;;;;;;10.46;46.13;100775.41;10347440;28;20069;-57
2021/04/02 19:57:51;;;;;;;8.90;6.80;;;;;;;10.56;44.21;100783.59;10352459;28;20661;-57
2021/04/02 20:02:55;;;;;;;116.20;83.82;;;;;;;10.46;43.07;100795.88;10348819;28;20780;-58
2021/04/02 20:07:56;;;;;;;8.43;5.18;;;;;;;10.00;43.80;100779.50;10353477;28;20136;-58
2021/04/02 20:12:57;;;;;;;6.15;5.55;;;;;;;9.89;43.38;100785.56;10352714;28;20107;-58
2021/04/02 20:17:58;;;;;;;6.78;4.63;;;;;;;9.48;44.46;100791.06;10352152;28;20060;-56
2021/04/02 20:22:59;;;;;;;9.50;4.90;;;;;;;9.67;43.79;100795.97;10336901;28;20133;-57
2021/04/02 20:28:00;;;;;;;6.43;3.88;;;;;;;9.87;43.26;100808.75;10352068;28;20109;-57
2021/04/02 20:33:05;;;;;;;6.05;3.60;;;;;;;10.06;42.50;100797.69;10335056;28;20701;-60
2021/04/02 20:38:06;;;;;;;7.53;6.40;;;;;;;9.84;42.57;100802.78;10348664;28;20440;-58
2021/04/02 20:43:07;;;;;;;8.10;4.57;;;;;;;9.98;42.35;100783.22;10349121;28;20057;-56
2021/04/02 20:48:10;;;;;;;9.50;5.25;;;;;;;9.78;42.59;100773.97;10346547;28;20053;-57
2021/04/02 20:53:11;;;;;;;9.23;5.30;;;;;;;9.89;42.59;100790.03;10346875;28;20138;-56
2021/04/02 20:58:12;;;;;;;6.70;4.82;;;;;;;9.99;42.60;100790.25;10348992;28;20045;-57
2021/04/02 21:03:16;;;;;;;5.95;4.05;;;;;;;10.06;42.22;100796.84;10350909;28;20045;-56
2021/04/02 21:08:17;;;;;;;5.03;3.17;;;;;;;10.14;42.00;100791.00;10350545;28;20149;-57
2021/04/02 21:13:18;;;;;;;5.80;3.20;;;;;;;10.09;41.78;100794.81;10348575;28;20053;-57
2021/04/02 21:18:19;;;;;;;4.38;2.85;;;;;;;9.51;43.25;100797.00;10342091;28;20502;-57
2021/04/02 21:23:20;;;;;;;3.88;2.42;;;;;;;9.81;41.38;100790.56;10346173;28;20042;-56
2021/04/02 21:28:21;;;;;;;2.88;2.08;;;;;;;10.03;40.66;100797.06;10345938;28;20053;-58
2021/04/02 21:33:22;;;;;;;4.80;2.92;;;;;;;9.46;41.43;100799.13;10351016;28;20053;-56
2021/04/02 21:38:23;;;;;;;4.93;2.13;;;;;;;9.18;42.08;100792.97;10347664;28;20850;-57
2021/04/02 21:43:24;;;;;;;6.30;2.30;;;;;;;9.38;41.53;100797.00;10344508;28;20073;-57
2021/04/02 21:48:25;;;;;;;4.25;2.13;;;;;;;9.58;41.61;100797.44;10352862;28;20136;-55
2021/04/02 21:53:26;;;;;;;4.97;2.72;;;;;;;9.67;40.85;100806.63;10363549;28;20065;-57
2021/04/02 21:58:28;;;;;;;8.55;2.80;;;;;;;9.53;41.33;100805.75;10359490;28;20056;-56
2021/04/02 22:03:29;;;;;;;2.63;1.77;;;;;;;9.76;40.86;100799.78;10370944;28;20529;-57
2021/04/02 22:08:30;;;;;;;3.53;1.90;;;;;;;9.06;41.74;100775.22;10363931;28;20136;-57
2021/04/02 22:13:31;;;;;;;3.30;1.95;;;;;;;9.05;42.26;100804.53;10367470;28;20134;-57
2021/04/02 22:18:33;;;;;;;6.63;2.05;;;;;;;9.24;41.79;100794.38;10364778;28;20056;-58
2021/04/02 22:23:36;;;;;;;4.63;2.03;;;;;;;9.36;41.68;100798.03;10368816;28;20052;-57
2021/04/02 22:28:41;;;;;;;5.13;1.98;;;;;;;9.55;41.23;100790.53;10370459;28;20485;-57
2021/04/02 22:33:48;;;;;;;4.25;2.15;;;;;;;9.65;41.12;100789.91;10368107;28;20778;-57
2021/04/02 22:38:49;;;;;;;6.00;2.00;;;;;;;9.85;40.77;100792.06;10365274;28;20908;-57
2021/04/02 22:43:51;;;;;;;3.78;1.95;;;;;;;9.45;41.19;100797.41;10372463;28;20629;-56
2021/04/02 22:48:52;;;;;;;3.63;1.58;;;;;;;9.67;40.78;100796.81;10382762;22;20050;-59
2021/04/02 22:53:53;;;;;;;3.42;1.52;;;;;;;9.62;41.04;100798.09;10338312;28;20475;-59
2021/04/02 22:58:54;;;;;;;3.80;1.90;;;;;;;9.50;41.06;100802.41;10325994;28;20507;-59
2021/04/02 23:03:55;;;;;;;1.80;1.35;;;;;;;9.73;41.11;100790.25;10334276;28;20145;-61
2021/04/02 23:08:56;;;;;;;2.55;1.80;;;;;;;9.79;40.35;100784.50;10333504;28;20089;-60
2021/04/02 23:13:57;;;;;;;5.78;1.92;;;;;;;9.64;40.82;100789.06;10337600;28;20996;-60